sensor_id;sensor_type;location;lat;lon;timestamp;temperature;humidity
23520;DHT22;11936;50.820;4.336;2024-01-16T14:40:54;4.00;99.90
23520;DHT22;11936;50.820;4.336;2024-01-16T14:43:21;4.00;99.90
23520;DHT22;11936;50.820;4.336;2024-01-16T14:45:47;4.20;99.90
23520;DHT22;11936;50.820;4.336;2024-01-16T14:48:14;4.30;99.90
23520;DHT22;11936;50.820;4.336;2024-01-16T14:50:40;4.20;99.90
23520;DHT22;11936;50.820;4.336;2024-01-16T14:53:05;4.10;99.90
23520;DHT22;11936;50.820;4.336;2024-01-16T14:55:31;4.10;99.90
23520;DHT22;11936;50.820;4.336;2024-01-16T14:57:56;4.00;99.90
23520;DHT22;11936;50.820;4.336;2024-01-16T15:00:25;4.00;99.90
23520;DHT22;11936;50.820;4.336;2024-01-16T15:02:55;4.00;99.90
23520;DHT22;11936;50.820;4.336;2024-01-16T15:05:22;4.10;99.90
23520;DHT22;11936;50.820;4.336;2024-01-16T15:07:49;4.10;99.90
23520;DHT22;11936;50.820;4.336;2024-01-16T15:10:15;3.90;99.90
23520;DHT22;11936;50.820;4.336;2024-01-16T15:12:43;3.80;99.90
23520;DHT22;11936;50.820;4.336;2024-01-16T15:15:10;3.80;99.90
23520;DHT22;11936;50.820;4.336;2024-01-16T15:17:37;3.90;99.90
23520;DHT22;11936;50.820;4.336;2024-01-16T15:20:04;3.80;99.90
23520;DHT22;11936;50.820;4.336;2024-01-16T15:22:44;3.70;99.90
23520;DHT22;11936;50.820;4.336;2024-01-16T15:25:11;3.80;99.90
23520;DHT22;11936;50.820;4.336;2024-01-16T15:27:39;3.80;99.90
23520;DHT22;11936;50.820;4.336;2024-01-16T15:30:05;3.80;99.90
23520;DHT22;11936;50.820;4.336;2024-01-16T15:32:33;3.90;99.90
23520;DHT22;11936;50.820;4.336;2024-01-16T15:34:59;3.90;99.90
23520;DHT22;11936;50.820;4.336;2024-01-16T15:37:26;3.80;99.90
23520;DHT22;11936;50.820;4.336;2024-01-16T15:39:51;3.80;99.90
23520;DHT22;11936;50.820;4.336;2024-01-16T15:42:17;3.90;99.90
23520;DHT22;11936;50.820;4.336;2024-01-16T15:44:43;3.80;99.90
23520;DHT22;11936;50.820;4.336;2024-01-16T15:47:08;3.80;99.90
23520;DHT22;11936;50.820;4.336;2024-01-16T15:49:34;3.80;99.90
23520;DHT22;11936;50.820;4.336;2024-01-16T15:52:01;3.90;99.90
23520;DHT22;11936;50.820;4.336;2024-01-16T15:54:29;4.00;99.90
23520;DHT22;11936;50.820;4.336;2024-01-16T15:56:58;4.10;99.90
23520;DHT22;11936;50.820;4.336;2024-01-16T15:59:24;4.10;99.90
23520;DHT22;11936;50.820;4.336;2024-01-16T16:01:49;4.10;99.90
23520;DHT22;11936;50.820;4.336;2024-01-16T16:04:16;3.90;99.90
23520;DHT22;11936;50.820;4.336;2024-01-16T16:06:42;4.00;99.90
23520;DHT22;11936;50.820;4.336;2024-01-16T16:09:10;4.10;99.90
23520;DHT22;11936;50.820;4.336;2024-01-16T16:11:37;4.00;99.90
23520;DHT22;11936;50.820;4.336;2024-01-16T16:14:10;3.90;99.90
23520;DHT22;11936;50.820;4.336;2024-01-16T16:16:36;3.90;99.90
23520;DHT22;11936;50.820;4.336;2024-01-16T16:19:02;3.80;99.90
23520;DHT22;11936;50.820;4.336;2024-01-16T16:21:28;3.80;99.90
23520;DHT22;11936;50.820;4.336;2024-01-16T16:23:55;3.80;99.90
23520;DHT22;11936;50.820;4.336;2024-01-16T16:29:07;4.00;99.90
23520;DHT22;11936;50.820;4.336;2024-01-16T16:31:34;4.00;99.90
23520;DHT22;11936;50.820;4.336;2024-01-16T16:34:12;3.90;99.90
23520;DHT22;11936;50.820;4.336;2024-01-16T16:36:40;3.90;99.90
23520;DHT22;11936;50.820;4.336;2024-01-16T16:39:07;3.90;99.90
23520;DHT22;11936;50.820;4.336;2024-01-16T16:41:32;3.80;99.90
23520;DHT22;11936;50.820;4.336;2024-01-16T16:44:05;3.80;99.90
23520;DHT22;11936;50.820;4.336;2024-01-16T16:46:31;3.80;99.90
23520;DHT22;11936;50.820;4.336;2024-01-16T16:48:57;3.90;99.90
23520;DHT22;11936;50.820;4.336;2024-01-16T16:51:23;3.90;99.90
23520;DHT22;11936;50.820;4.336;2024-01-16T16:53:51;3.80;99.90
23520;DHT22;11936;50.820;4.336;2024-01-16T16:56:17;3.80;99.90
23520;DHT22;11936;50.820;4.336;2024-01-16T16:58:45;3.70;99.90
23520;DHT22;11936;50.820;4.336;2024-01-16T17:01:12;3.70;99.90
23520;DHT22;11936;50.820;4.336;2024-01-16T17:03:38;3.70;99.90
23520;DHT22;11936;50.820;4.336;2024-01-16T17:06:05;3.70;99.90
23520;DHT22;11936;50.820;4.336;2024-01-16T17:08:37;3.70;99.90
23520;DHT22;11936;50.820;4.336;2024-01-16T17:11:03;3.80;99.90
23520;DHT22;11936;50.820;4.336;2024-01-16T17:13:31;3.80;99.90
23520;DHT22;11936;50.820;4.336;2024-01-16T17:15:58;3.80;99.90
23520;DHT22;11936;50.820;4.336;2024-01-16T17:18:24;3.70;99.90
23520;DHT22;11936;50.820;4.336;2024-01-16T17:20:50;3.70;99.90
23520;DHT22;11936;50.820;4.336;2024-01-16T17:23:17;3.80;99.90
23520;DHT22;11936;50.820;4.336;2024-01-16T17:25:42;3.80;99.90
23520;DHT22;11936;50.820;4.336;2024-01-16T17:28:08;3.70;99.90
23520;DHT22;11936;50.820;4.336;2024-01-16T17:30:34;3.50;99.90
23520;DHT22;11936;50.820;4.336;2024-01-16T17:32:59;3.50;99.90
23520;DHT22;11936;50.820;4.336;2024-01-16T17:35:25;3.50;99.90
23520;DHT22;11936;50.820;4.336;2024-01-16T17:37:51;3.40;99.90
23520;DHT22;11936;50.820;4.336;2024-01-16T17:40:17;3.40;99.90
23520;DHT22;11936;50.820;4.336;2024-01-16T17:42:43;3.40;99.90
23520;DHT22;11936;50.820;4.336;2024-01-16T17:45:09;3.40;99.90
23520;DHT22;11936;50.820;4.336;2024-01-16T17:47:35;3.30;99.90
23520;DHT22;11936;50.820;4.336;2024-01-16T17:50:01;3.40;99.90
23520;DHT22;11936;50.820;4.336;2024-01-16T17:52:29;3.20;99.90
23520;DHT22;11936;50.820;4.336;2024-01-16T17:54:57;3.20;99.90
23520;DHT22;11936;50.820;4.336;2024-01-16T17:57:23;3.10;99.90
23520;DHT22;11936;50.820;4.336;2024-01-16T17:59:48;3.10;99.90
23520;DHT22;11936;50.820;4.336;2024-01-16T18:02:15;3.10;99.90
23520;DHT22;11936;50.820;4.336;2024-01-16T18:04:42;3.20;99.90
23520;DHT22;11936;50.820;4.336;2024-01-16T18:07:08;3.30;99.90
23520;DHT22;11936;50.820;4.336;2024-01-16T18:09:33;3.30;99.90
23520;DHT22;11936;50.820;4.336;2024-01-16T18:12:00;3.30;99.90
23520;DHT22;11936;50.820;4.336;2024-01-16T18:14:26;3.30;99.90
23520;DHT22;11936;50.820;4.336;2024-01-16T18:16:52;3.30;99.90
23520;DHT22;11936;50.820;4.336;2024-01-16T18:19:19;3.30;99.90
23520;DHT22;11936;50.820;4.336;2024-01-16T18:21:47;3.30;99.90
23520;DHT22;11936;50.820;4.336;2024-01-16T18:24:14;3.20;99.90
23520;DHT22;11936;50.820;4.336;2024-01-16T18:26:44;3.10;99.90
23520;DHT22;11936;50.820;4.336;2024-01-16T18:29:11;3.20;99.90
23520;DHT22;11936;50.820;4.336;2024-01-16T18:31:37;3.20;99.90
23520;DHT22;11936;50.820;4.336;2024-01-16T18:34:06;3.20;99.90
23520;DHT22;11936;50.820;4.336;2024-01-16T18:36:35;3.10;99.90
23520;DHT22;11936;50.820;4.336;2024-01-16T18:39:01;3.10;99.90
23520;DHT22;11936;50.820;4.336;2024-01-16T18:41:29;3.20;99.90
23520;DHT22;11936;50.820;4.336;2024-01-16T18:43:54;3.20;99.90
23520;DHT22;11936;50.820;4.336;2024-01-16T18:46:20;3.10;99.90
23520;DHT22;11936;50.820;4.336;2024-01-16T18:48:48;2.90;99.90
23520;DHT22;11936;50.820;4.336;2024-01-16T18:51:13;3.00;99.90
23520;DHT22;11936;50.820;4.336;2024-01-16T18:53:39;3.00;99.90
23520;DHT22;11936;50.820;4.336;2024-01-16T18:56:05;3.00;99.90
23520;DHT22;11936;50.820;4.336;2024-01-16T18:58:32;3.00;99.90
23520;DHT22;11936;50.820;4.336;2024-01-16T19:00:58;3.00;99.90
23520;DHT22;11936;50.820;4.336;2024-01-16T19:03:26;3.10;99.90
23520;DHT22;11936;50.820;4.336;2024-01-16T19:05:52;3.10;99.90
23520;DHT22;11936;50.820;4.336;2024-01-16T19:08:23;3.00;99.90
23520;DHT22;11936;50.820;4.336;2024-01-16T19:10:53;3.00;99.90
23520;DHT22;11936;50.820;4.336;2024-01-16T19:13:21;3.00;99.90
23520;DHT22;11936;50.820;4.336;2024-01-16T19:15:48;3.10;99.90
23520;DHT22;11936;50.820;4.336;2024-01-16T19:18:16;3.20;99.90
23520;DHT22;11936;50.820;4.336;2024-01-16T19:20:42;3.20;99.90
23520;DHT22;11936;50.820;4.336;2024-01-16T19:23:08;3.10;99.90
23520;DHT22;11936;50.820;4.336;2024-01-16T19:25:33;3.10;99.90
23520;DHT22;11936;50.820;4.336;2024-01-16T19:27:59;3.00;99.90
23520;DHT22;11936;50.820;4.336;2024-01-16T19:30:25;2.80;99.90
23520;DHT22;11936;50.820;4.336;2024-01-16T19:32:54;2.90;99.90
23520;DHT22;11936;50.820;4.336;2024-01-16T19:35:20;3.00;99.90
23520;DHT22;11936;50.820;4.336;2024-01-16T19:37:46;3.00;99.90
23520;DHT22;11936;50.820;4.336;2024-01-16T19:40:11;2.90;99.90
23520;DHT22;11936;50.820;4.336;2024-01-16T19:42:40;2.90;99.90
23520;DHT22;11936;50.820;4.336;2024-01-16T19:45:09;2.90;99.90
